Time;durP1;ratioP1;P1;durP2;ratioP2;P2;SDS_P1;SDS_P2;PMS_P1;PMS_P2;Temp;Humidity;BMP_temperature;BMP_pressure;BME280_temperature;BME280_humidity;BME280_pressure;Samples;Min_cycle;Max_cycle;Signal;HPM_P1;HPM_P2
2024/01/21 00:00:39;;;;;;;;;;;29.00;99.90;;;;;;5033714;28;19936;-69
2024/01/21 00:03:06;;;;;;;;;;;29.10;99.90;;;;;;5033755;28;19906;-69
2024/01/21 00:05:36;;;;;;;;;;;29.30;99.90;;;;;;5014722;28;19913;-72
2024/01/21 00:08:02;;;;;;;;;;;29.50;99.90;;;;;;5013948;28;19913;-72
2024/01/21 00:10:29;;;;;;;;;;;29.70;99.90;;;;;;4997046;28;19917;-72
2024/01/21 00:12:56;;;;;;;;;;;29.70;99.90;;;;;;5013912;28;20000;-70
2024/01/21 00:15:22;;;;;;;;;;;29.80;99.90;;;;;;5013939;28;19948;-71
2024/01/21 00:17:49;;;;;;;;;;;29.90;99.90;;;;;;5015906;28;19933;-70
2024/01/21 00:20:16;;;;;;;;;;;30.00;99.90;;;;;;5026864;28;20297;-68
2024/01/21 00:22:42;;;;;;;;;;;30.20;99.90;;;;;;5013445;28;19909;-68
2024/01/21 00:25:12;;;;;;;;;;;30.30;99.90;;;;;;4995763;28;19917;-69
2024/01/21 00:27:38;;;;;;;;;;;30.40;99.50;;;;;;5013723;28;19975;-70
2024/01/21 00:30:05;;;;;;;;;;;30.50;99.60;;;;;;5026899;28;19956;-69
2024/01/21 00:32:32;;;;;;;;;;;30.60;98.90;;;;;;5013797;28;20389;-70
2024/01/21 00:34:59;;;;;;;;;;;30.70;98.60;;;;;;5012996;28;19916;-72
2024/01/21 00:37:25;;;;;;;;;;;30.90;99.10;;;;;;5014406;28;19929;-69
2024/01/21 00:39:52;;;;;;;;;;;31.00;97.80;;;;;;5013451;28;19929;-68
2024/01/21 00:42:19;;;;;;;;;;;31.10;98.10;;;;;;5013173;28;19910;-69
2024/01/21 00:44:46;;;;;;;;;;;31.30;97.60;;;;;;5013422;28;20293;-67
2024/01/21 00:47:12;;;;;;;;;;;31.40;97.70;;;;;;5024800;28;19913;-68
2024/01/21 00:49:39;;;;;;;;;;;31.50;96.00;;;;;;5033230;28;19909;-69
2024/01/21 00:52:06;;;;;;;;;;;31.50;94.60;;;;;;5033196;28;19956;-69
2024/01/21 00:54:33;;;;;;;;;;;31.60;93.20;;;;;;5032998;28;19956;-68
2024/01/21 00:56:59;;;;;;;;;;;31.80;92.10;;;;;;5033028;28;19917;-69
2024/01/21 00:59:26;;;;;;;;;;;32.00;92.60;;;;;;5017694;28;20429;-69
2024/01/21 01:01:53;;;;;;;;;;;32.20;92.50;;;;;;5013401;28;19911;-68
2024/01/21 01:04:20;;;;;;;;;;;32.40;92.80;;;;;;5013275;28;19910;-69
2024/01/21 01:06:46;;;;;;;;;;;32.70;92.70;;;;;;5025694;28;19914;-70
2024/01/21 01:09:13;;;;;;;;;;;32.80;91.50;;;;;;5032028;28;19913;-71
2024/01/21 01:11:40;;;;;;;;;;;33.00;91.30;;;;;;5033140;28;19921;-70
2024/01/21 01:14:06;;;;;;;;;;;33.10;90.00;;;;;;5033081;28;19999;-69
2024/01/21 01:16:39;;;;;;;;;;;33.30;88.00;;;;;;5030976;28;19974;-71
2024/01/21 01:19:06;;;;;;;;;;;33.30;86.90;;;;;;5014707;28;19924;-69
2024/01/21 01:21:33;;;;;;;;;;;33.30;85.70;;;;;;5033052;28;19963;-70
2024/01/21 01:23:59;;;;;;;;;;;33.30;86.10;;;;;;5033306;28;19914;-69
2024/01/21 01:26:26;;;;;;;;;;;33.50;87.00;;;;;;5026121;28;19991;-72
2024/01/21 01:28:53;;;;;;;;;;;33.60;87.30;;;;;;5009231;28;19917;-70
2024/01/21 01:31:20;;;;;;;;;;;33.70;85.20;;;;;;5032839;28;20380;-70
2024/01/21 01:33:47;;;;;;;;;;;33.80;84.90;;;;;;5032681;28;19913;-70
2024/01/21 01:36:13;;;;;;;;;;;33.90;85.10;;;;;;5018327;28;19928;-70
2024/01/21 01:38:40;;;;;;;;;;;34.10;79.80;;;;;;5012879;28;19918;-70
2024/01/21 01:41:07;;;;;;;;;;;34.20;79.20;;;;;;5030610;28;19913;-72
2024/01/21 01:43:33;;;;;;;;;;;34.50;79.10;;;;;;5022332;28;19960;-70
2024/01/21 01:46:00;;;;;;;;;;;34.80;79.90;;;;;;5012830;28;19910;-70
2024/01/21 01:48:31;;;;;;;;;;;35.00;80.80;;;;;;5012830;28;20036;-70
2024/01/21 01:50:58;;;;;;;;;;;35.10;80.20;;;;;;5013038;28;20289;-70
2024/01/21 01:53:26;;;;;;;;;;;35.20;76.90;;;;;;5027442;28;20012;-70
2024/01/21 01:55:53;;;;;;;;;;;35.40;78.00;;;;;;5032148;28;19913;-69
2024/01/21 01:58:21;;;;;;;;;;;35.70;78.00;;;;;;5032413;28;19923;-69
2024/01/21 02:00:48;;;;;;;;;;;35.70;76.70;;;;;;5032526;28;20452;-70
2024/01/21 02:03:15;;;;;;;;;;;35.80;76.00;;;;;;5032296;28;19915;-70
2024/01/21 02:05:41;;;;;;;;;;;35.90;75.60;;;;;;5016496;28;19913;-70
2024/01/21 02:08:08;;;;;;;;;;;36.00;75.70;;;;;;5013001;28;20274;-71
2024/01/21 02:10:34;;;;;;;;;;;36.10;73.40;;;;;;5012957;28;19910;-71
2024/01/21 02:13:01;;;;;;;;;;;36.20;75.00;;;;;;5017829;28;20427;-70
2024/01/21 02:15:27;;;;;;;;;;;36.30;72.00;;;;;;5012156;28;19909;-74
2024/01/21 02:17:54;;;;;;;;;;;36.50;72.20;;;;;;5012340;28;19921;-69
2024/01/21 02:20:21;;;;;;;;;;;36.60;71.40;;;;;;5000080;28;20004;-69
2024/01/21 02:22:49;;;;;;;;;;;36.80;70.40;;;;;;5035504;28;19913;-73
2024/01/21 02:25:15;;;;;;;;;;;36.90;71.10;;;;;;5035311;28;19909;-70
2024/01/21 02:27:42;;;;;;;;;;;37.20;71.40;;;;;;5035287;28;19928;-70
2024/01/21 02:30:09;;;;;;;;;;;37.30;70.00;;;;;;5034872;28;19913;-72
2024/01/21 02:32:35;;;;;;;;;;;37.50;69.50;;;;;;5035412;28;19931;-70
2024/01/21 02:35:02;;;;;;;;;;;37.60;69.00;;;;;;5035510;28;19909;-70
2024/01/21 02:37:28;;;;;;;;;;;37.90;69.80;;;;;;5034447;28;19921;-70
2024/01/21 02:39:55;;;;;;;;;;;38.00;67.20;;;;;;5031951;28;19921;-73
2024/01/21 02:42:22;;;;;;;;;;;38.00;66.40;;;;;;5032956;28;19955;-70
2024/01/21 02:44:50;;;;;;;;;;;38.10;65.60;;;;;;5035339;28;19940;-74
2024/01/21 02:47:17;;;;;;;;;;;38.10;64.60;;;;;;5015320;28;19964;-70
2024/01/21 02:49:44;;;;;;;;;;;38.10;64.10;;;;;;5034947;28;19960;-71
2024/01/21 02:52:11;;;;;;;;;;;38.20;64.70;;;;;;5012992;28;19936;-70
2024/01/21 02:54:37;;;;;;;;;;;38.30;65.30;;;;;;5015311;28;19921;-72
2024/01/21 02:57:04;;;;;;;;;;;38.40;64.50;;;;;;5017575;28;19913;-71
2024/01/21 02:59:31;;;;;;;;;;;38.50;63.70;;;;;;5015062;28;19914;-75
2024/01/21 03:01:57;;;;;;;;;;;38.40;63.30;;;;;;5015132;28;20370;-69
2024/01/21 03:04:24;;;;;;;;;;;38.50;62.60;;;;;;5018146;28;19913;-69
2024/01/21 03:06:51;;;;;;;;;;;38.70;63.90;;;;;;5034849;28;19909;-70
2024/01/21 03:09:17;;;;;;;;;;;39.20;64.30;;;;;;5034697;28;19913;-71
2024/01/21 03:11:44;;;;;;;;;;;39.60;61.70;;;;;;5034635;28;19909;-70
2024/01/21 03:14:10;;;;;;;;;;;40.10;60.60;;;;;;5027692;28;19910;-68
2024/01/21 03:16:37;;;;;;;;;;;40.50;61.70;;;;;;5018674;28;19921;-74
2024/01/21 03:19:04;;;;;;;;;;;41.00;59.80;;;;;;5016694;28;19941;-69
2024/01/21 03:21:30;;;;;;;;;;;41.60;58.10;;;;;;5034640;28;19916;-70
2024/01/21 03:23:57;;;;;;;;;;;42.00;59.60;;;;;;5034227;28;19932;-69
2024/01/21 03:26:23;;;;;;;;;;;42.70;57.60;;;;;;5034633;28;20392;-71
2024/01/21 03:28:50;;;;;;;;;;;43.20;57.70;;;;;;5032502;28;20376;-69
2024/01/21 03:31:19;;;;;;;;;;;43.90;57.50;;;;;;5034168;28;19917;-71
2024/01/21 03:33:46;;;;;;;;;;;44.60;55.90;;;;;;5033925;28;19909;-69
2024/01/21 03:36:12;;;;;;;;;;;45.20;54.70;;;;;;5033976;28;19913;-71
2024/01/21 03:38:39;;;;;;;;;;;45.80;53.00;;;;;;5033985;28;19940;-70
2024/01/21 03:41:05;;;;;;;;;;;46.40;53.50;;;;;;5026020;28;19925;-70
2024/01/21 03:43:32;;;;;;;;;;;46.90;52.40;;;;;;5032724;28;19921;-71
2024/01/21 03:45:59;;;;;;;;;;;46.90;50.50;;;;;;5034155;28;19956;-71
2024/01/21 03:48:25;;;;;;;;;;;47.20;51.30;;;;;;5034312;28;19909;-71
2024/01/21 03:50:52;;;;;;;;;;;46.80;50.20;;;;;;5034135;28;19909;-74
2024/01/21 03:53:18;;;;;;;;;;;47.30;50.40;;;;;;5022199;28;19914;-70
2024/01/21 03:55:45;;;;;;;;;;;47.70;49.70;;;;;;5014166;28;19925;-74
2024/01/21 03:58:12;;;;;;;;;;;47.90;49.20;;;;;;5013994;28;19961;-72
2024/01/21 04:00:38;;;;;;;;;;;47.70;49.30;;;;;;5019926;28;19913;-71
2024/01/21 04:03:05;;;;;;;;;;;47.90;49.10;;;;;;5016273;28;20003;-71
2024/01/21 04:05:32;;;;;;;;;;;48.10;47.80;;;;;;5018157;28;19913;-71
2024/01/21 04:07:59;;;;;;;;;;;47.90;47.60;;;;;;5013793;28;19949;-70
2024/01/21 04:10:25;;;;;;;;;;;47.90;47.80;;;;;;5014091;28;19929;-69
2024/01/21 04:12:52;;;;;;;;;;;47.60;47.90;;;;;;4996192;28;19925;-69
2024/01/21 04:15:19;;;;;;;;;;;47.50;47.40;;;;;;5013365;28;19910;-72
2024/01/21 04:17:45;;;;;;;;;;;47.80;46.70;;;;;;5031358;28;19921;-71
2024/01/21 04:20:12;;;;;;;;;;;47.90;47.50;;;;;;5028033;28;19920;-70
2024/01/21 04:22:39;;;;;;;;;;;48.20;50.70;;;;;;5013687;28;19909;-71
2024/01/21 04:25:05;;;;;;;;;;;48.60;50.60;;;;;;5014438;28;19917;-72
2024/01/21 04:27:32;;;;;;;;;;;49.10;51.00;;;;;;5032630;28;20328;-73
2024/01/21 04:29:58;;;;;;;;;;;49.50;51.00;;;;;;5013621;28;20392;-72
2024/01/21 04:32:25;;;;;;;;;;;49.70;48.80;;;;;;5013555;28;19926;-72
2024/01/21 04:34:52;;;;;;;;;;;49.60;50.40;;;;;;5011992;28;20329;-72
2024/01/21 04:37:18;;;;;;;;;;;48.10;52.60;;;;;;5011779;28;19971;-73
2024/01/21 04:39:45;;;;;;;;;;;47.20;52.40;;;;;;5011921;28;19910;-72
2024/01/21 04:42:12;;;;;;;;;;;47.60;52.20;;;;;;5031503;28;19913;-75
2024/01/21 04:44:38;;;;;;;;;;;48.30;51.60;;;;;;5031888;28;19916;-71
2024/01/21 04:47:05;;;;;;;;;;;49.40;51.40;;;;;;5032843;28;20312;-70
2024/01/21 04:49:31;;;;;;;;;;;49.30;49.70;;;;;;5017426;28;19963;-72
2024/01/21 04:51:59;;;;;;;;;;;49.60;48.10;;;;;;5016141;28;19921;-69
2024/01/21 04:54:26;;;;;;;;;;;49.60;46.90;;;;;;5018270;28;20374;-70
2024/01/21 04:56:53;;;;;;;;;;;49.90;46.60;;;;;;5013356;28;20006;-73
2024/01/21 04:59:20;;;;;;;;;;;49.80;47.80;;;;;;5013262;28;19920;-70
2024/01/21 05:01:50;;;;;;;;;;;49.50;48.10;;;;;;4995559;28;20274;-71
2024/01/21 05:04:16;;;;;;;;;;;50.00;47.30;;;;;;5017847;28;19909;-73
2024/01/21 05:06:43;;;;;;;;;;;50.30;46.30;;;;;;5032884;28;19919;-72
2024/01/21 05:09:10;;;;;;;;;;;50.70;46.80;;;;;;5032623;28;19931;-71
2024/01/21 05:11:37;;;;;;;;;;;50.70;47.70;;;;;;5031060;28;20324;-71
2024/01/21 05:14:04;;;;;;;;;;;49.90;50.90;;;;;;5013132;28;19914;-71
2024/01/21 05:16:31;;;;;;;;;;;49.30;51.50;;;;;;5014143;28;19909;-69
2024/01/21 05:18:57;;;;;;;;;;;49.00;51.10;;;;;;5013337;28;19917;-71
2024/01/21 05:21:24;;;;;;;;;;;48.90;50.80;;;;;;5013260;28;20405;-72
2024/01/21 05:23:51;;;;;;;;;;;48.80;51.40;;;;;;5017777;28;19916;-71
2024/01/21 05:26:18;;;;;;;;;;;48.50;48.30;;;;;;5023729;28;20377;-72
2024/01/21 05:28:45;;;;;;;;;;;49.00;45.80;;;;;;5013158;28;19910;-72
2024/01/21 05:31:12;;;;;;;;;;;49.00;44.90;;;;;;5013467;28;19917;-71
2024/01/21 05:33:40;;;;;;;;;;;49.10;44.70;;;;;;5014687;28;19914;-72
2024/01/21 05:36:07;;;;;;;;;;;48.90;43.40;;;;;;5032049;28;19936;-72
2024/01/21 05:38:33;;;;;;;;;;;48.50;43.70;;;;;;5022303;28;19929;-75
2024/01/21 05:41:00;;;;;;;;;;;48.40;43.70;;;;;;5013146;28;19910;-69
2024/01/21 05:43:26;;;;;;;;;;;48.50;43.50;;;;;;5016822;28;19944;-72
2024/01/21 05:45:54;;;;;;;;;;;48.50;43.30;;;;;;5032854;28;19909;-70
2024/01/21 05:48:20;;;;;;;;;;;48.70;43.50;;;;;;5032307;28;19956;-71
2024/01/21 05:50:47;;;;;;;;;;;48.90;43.40;;;;;;5018146;28;19924;-72
2024/01/21 05:53:14;;;;;;;;;;;49.10;44.50;;;;;;5012855;28;19916;-71
2024/01/21 05:55:40;;;;;;;;;;;49.20;43.60;;;;;;5014350;28;19909;-71
2024/01/21 05:58:07;;;;;;;;;;;49.50;43.20;;;;;;5016356;28;19918;-70
2024/01/21 06:00:33;;;;;;;;;;;49.10;42.70;;;;;;5016658;28;19909;-69
2024/01/21 06:03:00;;;;;;;;;;;48.90;43.20;;;;;;5029739;28;19913;-72
2024/01/21 06:05:26;;;;;;;;;;;48.70;43.20;;;;;;5035584;28;19913;-72
2024/01/21 06:07:53;;;;;;;;;;;48.50;43.40;;;;;;5036058;28;19909;-71
2024/01/21 06:10:20;;;;;;;;;;;48.40;42.80;;;;;;5036245;28;19909;-68
2024/01/21 06:12:46;;;;;;;;;;;48.20;43.10;;;;;;5034203;28;19948;-71
2024/01/21 06:15:13;;;;;;;;;;;48.10;43.10;;;;;;5021667;28;20289;-68
2024/01/21 06:17:40;;;;;;;;;;;47.80;43.10;;;;;;5014883;28;19921;-73
2024/01/21 06:20:07;;;;;;;;;;;47.30;43.30;;;;;;5021243;28;19917;-70
2024/01/21 06:22:34;;;;;;;;;;;46.40;43.90;;;;;;5034835;28;19916;-71
2024/01/21 06:25:00;;;;;;;;;;;45.40;44.50;;;;;;5033888;28;19921;-72
2024/01/21 06:27:27;;;;;;;;;;;44.60;44.60;;;;;;5017908;28;20408;-72
2024/01/21 06:29:54;;;;;;;;;;;43.90;45.10;;;;;;5015906;28;19917;-70
2024/01/21 06:32:20;;;;;;;;;;;43.50;45.50;;;;;;5015889;28;20382;-73
2024/01/21 06:34:47;;;;;;;;;;;43.30;45.30;;;;;;5015859;28;20289;-72
2024/01/21 06:37:13;;;;;;;;;;;42.90;46.20;;;;;;5015867;28;20365;-73
2024/01/21 06:39:40;;;;;;;;;;;42.60;45.70;;;;;;5032977;28;19917;-71
2024/01/21 06:42:07;;;;;;;;;;;42.50;46.60;;;;;;5035531;28;19952;-73
2024/01/21 06:44:35;;;;;;;;;;;42.30;46.10;;;;;;5035456;28;19905;-72
2024/01/21 06:47:01;;;;;;;;;;;42.00;46.70;;;;;;5035227;28;19909;-69
2024/01/21 06:49:28;;;;;;;;;;;42.00;46.80;;;;;;5035334;28;19909;-71
2024/01/21 06:51:55;;;;;;;;;;;42.10;47.00;;;;;;5018502;28;19975;-71
2024/01/21 06:54:22;;;;;;;;;;;42.20;46.80;;;;;;5015389;28;20270;-75
2024/01/21 06:56:48;;;;;;;;;;;42.40;46.90;;;;;;5015093;28;19921;-70
2024/01/21 06:59:15;;;;;;;;;;;42.30;47.00;;;;;;5015328;28;19956;-74
2024/01/21 07:01:42;;;;;;;;;;;42.10;47.10;;;;;;5015179;28;19910;-71
2024/01/21 07:04:08;;;;;;;;;;;42.00;46.90;;;;;;5030768;28;19924;-70
2024/01/21 07:06:35;;;;;;;;;;;41.90;46.90;;;;;;5025636;28;19921;-71
2024/01/21 07:09:02;;;;;;;;;;;41.60;46.90;;;;;;5015163;28;19963;-70
2024/01/21 07:11:29;;;;;;;;;;;41.40;47.40;;;;;;5015238;28;20064;-70
2024/01/21 07:13:56;;;;;;;;;;;41.30;47.60;;;;;;5015242;28;19913;-72
2024/01/21 07:16:23;;;;;;;;;;;41.10;47.20;;;;;;5030809;28;19924;-71
2024/01/21 07:18:50;;;;;;;;;;;41.10;47.50;;;;;;5034631;28;19921;-71
2024/01/21 07:21:16;;;;;;;;;;;41.10;47.50;;;;;;5034744;28;19909;-73
2024/01/21 07:23:43;;;;;;;;;;;41.10;47.90;;;;;;5034521;28;20284;-72
2024/01/21 07:26:10;;;;;;;;;;;41.00;47.50;;;;;;5020314;28;19914;-70
2024/01/21 07:28:37;;;;;;;;;;;41.00;47.70;;;;;;4996793;28;20285;-68
2024/01/21 07:31:03;;;;;;;;;;;41.00;47.80;;;;;;4996931;28;19996;-72
2024/01/21 07:33:30;;;;;;;;;;;41.00;47.90;;;;;;4998292;28;19992;-70
2024/01/21 07:35:58;;;;;;;;;;;40.90;47.50;;;;;;5014852;28;19919;-70
2024/01/21 07:38:25;;;;;;;;;;;40.70;47.40;;;;;;5030438;28;20385;-71
2024/01/21 07:40:51;;;;;;;;;;;40.60;47.60;;;;;;5034583;28;19913;-72
2024/01/21 07:43:18;;;;;;;;;;;40.40;47.80;;;;;;5034430;28;19959;-71
2024/01/21 07:45:45;;;;;;;;;;;40.30;48.80;;;;;;5025836;28;19957;-74
2024/01/21 07:48:11;;;;;;;;;;;40.10;55.80;;;;;;5014273;28;20390;-72
2024/01/21 07:50:38;;;;;;;;;;;39.70;58.30;;;;;;5032017;28;19925;-73
2024/01/21 07:53:05;;;;;;;;;;;39.40;59.60;;;;;;5033993;28;19909;-73
2024/01/21 07:55:31;;;;;;;;;;;39.20;60.70;;;;;;5025731;28;20012;-70
2024/01/21 07:57:58;;;;;;;;;;;38.90;61.40;;;;;;5013993;28;19921;-74
2024/01/21 08:00:25;;;;;;;;;;;38.60;59.30;;;;;;5014201;28;20281;-73
2024/01/21 08:02:52;;;;;;;;;;;38.20;61.20;;;;;;5032340;28;19920;-71
2024/01/21 08:05:19;;;;;;;;;;;37.80;61.70;;;;;;5033556;28;19909;-72
2024/01/21 08:07:45;;;;;;;;;;;37.30;62.40;;;;;;5033962;28;19916;-72
2024/01/21 08:10:12;;;;;;;;;;;36.70;62.70;;;;;;5034048;28;19955;-73
2024/01/21 08:12:39;;;;;;;;;;;36.50;63.70;;;;;;5031400;28;19916;-73
2024/01/21 08:15:08;;;;;;;;;;;36.30;63.40;;;;;;5013684;28;20369;-72
2024/01/21 08:17:35;;;;;;;;;;;36.10;64.50;;;;;;5013917;28;19936;-73
2024/01/21 08:20:02;;;;;;;;;;;36.00;64.20;;;;;;5014138;28;19975;-74
2024/01/21 08:22:28;;;;;;;;;;;35.90;61.10;;;;;;5013984;28;20508;-72
2024/01/21 08:24:56;;;;;;;;;;;35.80;62.70;;;;;;5016709;28;19920;-73
2024/01/21 08:27:22;;;;;;;;;;;35.90;62.50;;;;;;5033478;28;19922;-73
2024/01/21 08:29:49;;;;;;;;;;;35.90;56.10;;;;;;5023441;28;19913;-71
2024/01/21 08:32:19;;;;;;;;;;;36.00;52.80;;;;;;5012776;28;20465;-72
2024/01/21 08:34:46;;;;;;;;;;;36.20;51.50;;;;;;5013985;28;19945;-71
2024/01/21 08:37:13;;;;;;;;;;;36.50;51.50;;;;;;5021190;28;19975;-70
2024/01/21 08:39:39;;;;;;;;;;;36.60;55.40;;;;;;5013290;28;20012;-71
2024/01/21 08:42:06;;;;;;;;;;;36.40;60.20;;;;;;5013945;28;20282;-71
2024/01/21 08:44:33;;;;;;;;;;;36.10;61.40;;;;;;5013824;28;19910;-71
2024/01/21 08:46:59;;;;;;;;;;;35.80;62.10;;;;;;5022632;28;19913;-72
2024/01/21 08:49:26;;;;;;;;;;;35.40;63.10;;;;;;5032816;28;19944;-72
2024/01/21 08:51:53;;;;;;;;;;;35.10;64.10;;;;;;5033014;28;19992;-72
2024/01/21 08:54:19;;;;;;;;;;;34.90;64.10;;;;;;5033163;28;19931;-73
2024/01/21 08:56:46;;;;;;;;;;;34.60;64.40;;;;;;5032934;28;19916;-70
2024/01/21 08:59:12;;;;;;;;;;;34.30;65.30;;;;;;5021394;28;19957;-69
2024/01/21 09:01:39;;;;;;;;;;;34.20;64.80;;;;;;5013134;28;19980;-70
2024/01/21 09:04:06;;;;;;;;;;;33.90;65.50;;;;;;5013034;28;19960;-69
2024/01/21 09:06:32;;;;;;;;;;;33.80;66.00;;;;;;5015795;28;20004;-71
2024/01/21 09:08:59;;;;;;;;;;;33.60;66.50;;;;;;5014874;28;19913;-69
2024/01/21 09:11:26;;;;;;;;;;;33.50;66.90;;;;;;5017638;28;19959;-70
2024/01/21 09:13:52;;;;;;;;;;;33.40;66.60;;;;;;5013262;28;19910;-70
2024/01/21 09:16:19;;;;;;;;;;;33.20;67.40;;;;;;5013017;28;19963;-69
2024/01/21 09:18:49;;;;;;;;;;;33.10;67.40;;;;;;5013214;28;19918;-71
2024/01/21 09:21:15;;;;;;;;;;;32.90;67.40;;;;;;5012906;28;20339;-68
2024/01/21 09:23:42;;;;;;;;;;;32.80;68.40;;;;;;5030671;28;20004;-69
2024/01/21 09:26:09;;;;;;;;;;;32.80;68.70;;;;;;5019843;28;19921;-70
2024/01/21 09:28:36;;;;;;;;;;;32.80;68.90;;;;;;5012452;28;20354;-70
2024/01/21 09:31:03;;;;;;;;;;;32.60;69.20;;;;;;5015570;28;20358;-71
2024/01/21 09:33:30;;;;;;;;;;;32.50;70.20;;;;;;5018366;28;19932;-69
2024/01/21 09:35:57;;;;;;;;;;;32.40;70.00;;;;;;5016908;28;20003;-69
2024/01/21 09:38:23;;;;;;;;;;;32.30;69.80;;;;;;5016975;28;19917;-69
2024/01/21 09:40:57;;;;;;;;;;;32.30;70.70;;;;;;5016903;28;19909;-69
2024/01/21 09:43:24;;;;;;;;;;;32.30;71.10;;;;;;5028476;28;20262;-69
2024/01/21 09:45:51;;;;;;;;;;;32.10;70.90;;;;;;5035931;28;19909;-70
2024/01/21 09:48:18;;;;;;;;;;;32.10;71.30;;;;;;5034897;28;20359;-74
2024/01/21 09:50:46;;;;;;;;;;;32.00;71.20;;;;;;5036268;28;19913;-73
2024/01/21 09:53:12;;;;;;;;;;;32.00;70.90;;;;;;5036235;28;19913;-72
2024/01/21 09:55:39;;;;;;;;;;;32.00;71.10;;;;;;5036418;28;19909;-74
2024/01/21 09:58:07;;;;;;;;;;;32.00;71.70;;;;;;5018653;28;19917;-75
2024/01/21 10:00:34;;;;;;;;;;;31.90;71.80;;;;;;5016442;28;19914;-70
2024/01/21 10:03:03;;;;;;;;;;;31.90;72.50;;;;;;5016659;28;19913;-74
2024/01/21 10:05:29;;;;;;;;;;;31.80;72.50;;;;;;5016404;28;19964;-70
2024/01/21 10:07:57;;;;;;;;;;;31.80;73.60;;;;;;5017826;28;19956;-72
2024/01/21 10:10:23;;;;;;;;;;;31.70;73.30;;;;;;5035720;28;20361;-69
2024/01/21 10:12:50;;;;;;;;;;;31.70;73.70;;;;;;5036184;28;19917;-71
2024/01/21 10:15:17;;;;;;;;;;;31.70;74.00;;;;;;5024926;28;20385;-71
2024/01/21 10:17:44;;;;;;;;;;;31.50;74.30;;;;;;5016069;28;19922;-71
2024/01/21 10:20:12;;;;;;;;;;;31.40;73.60;;;;;;4999761;28;19913;-70
2024/01/21 10:22:41;;;;;;;;;;;31.30;74.20;;;;;;5035801;28;19913;-75
2024/01/21 10:25:09;;;;;;;;;;;31.10;74.60;;;;;;5035792;28;20000;-76
2024/01/21 10:27:35;;;;;;;;;;;31.00;75.20;;;;;;5035601;28;20365;-72
2024/01/21 10:30:03;;;;;;;;;;;30.90;75.60;;;;;;5034589;28;19955;-70
2024/01/21 10:32:30;;;;;;;;;;;30.90;76.10;;;;;;5033171;28;20396;-70
2024/01/21 10:34:56;;;;;;;;;;;30.90;76.40;;;;;;5033173;28;19913;-68
2024/01/21 10:37:24;;;;;;;;;;;30.80;76.30;;;;;;5007580;28;19913;-70
2024/01/21 10:39:51;;;;;;;;;;;30.90;76.60;;;;;;5024440;28;19909;-68
2024/01/21 10:42:20;;;;;;;;;;;30.90;76.80;;;;;;5023782;28;19971;-69
2024/01/21 10:44:47;;;;;;;;;;;30.80;78.70;;;;;;5013846;28;19960;-71
2024/01/21 10:47:14;;;;;;;;;;;30.70;82.60;;;;;;5035053;28;20435;-72
2024/01/21 10:49:42;;;;;;;;;;;30.30;84.90;;;;;;5035668;28;19909;-70
2024/01/21 10:52:10;;;;;;;;;;;29.80;87.70;;;;;;5035591;28;20460;-70
2024/01/21 10:54:41;;;;;;;;;;;29.30;89.80;;;;;;5022846;28;20358;-71
2024/01/21 10:57:07;;;;;;;;;;;28.80;91.00;;;;;;5027240;28;19928;-70
2024/01/21 10:59:38;;;;;;;;;;;28.40;92.00;;;;;;5035215;28;19963;-72
2024/01/21 11:02:05;;;;;;;;;;;28.00;92.90;;;;;;5035429;28;19913;-71
2024/01/21 11:04:31;;;;;;;;;;;27.60;94.00;;;;;;5029638;28;19913;-72
2024/01/21 11:07:01;;;;;;;;;;;27.30;95.00;;;;;;5015007;28;19914;-69
2024/01/21 11:09:30;;;;;;;;;;;27.10;95.80;;;;;;5027576;28;19913;-69
2024/01/21 11:11:56;;;;;;;;;;;26.90;96.40;;;;;;5032053;28;19952;-69
2024/01/21 11:14:33;;;;;;;;;;;26.70;97.30;;;;;;5014968;28;20000;-71
2024/01/21 11:17:01;;;;;;;;;;;26.50;98.10;;;;;;5025656;28;19917;-68
2024/01/21 11:19:38;;;;;;;;;;;26.30;98.70;;;;;;5020252;28;20333;-74
2024/01/21 11:22:09;;;;;;;;;;;26.20;99.30;;;;;;5027414;28;19913;-74
2024/01/21 11:24:36;;;;;;;;;;;26.10;99.90;;;;;;5027632;28;19913;-71
2024/01/21 11:27:03;;;;;;;;;;;26.00;99.90;;;;;;5029016;28;19921;-69
2024/01/21 11:29:30;;;;;;;;;;;25.90;99.90;;;;;;5021233;28;19914;-70
2024/01/21 11:31:57;;;;;;;;;;;25.90;99.90;;;;;;5015928;28;19917;-70
2024/01/21 11:34:25;;;;;;;;;;;25.80;99.90;;;;;;5031089;28;20376;-70
2024/01/21 11:36:51;;;;;;;;;;;25.80;99.90;;;;;;5028318;28;19916;-72
2024/01/21 11:39:20;;;;;;;;;;;25.70;99.90;;;;;;5019828;28;19913;-69
2024/01/21 11:41:47;;;;;;;;;;;25.60;99.90;;;;;;5026263;28;20431;-73
2024/01/21 11:44:19;;;;;;;;;;;25.50;99.90;;;;;;5026985;28;19913;-71
2024/01/21 11:46:47;;;;;;;;;;;25.40;99.90;;;;;;5022476;28;19995;-72
2024/01/21 11:49:13;;;;;;;;;;;25.40;99.90;;;;;;5024998;28;19997;-69
2024/01/21 11:51:40;;;;;;;;;;;25.30;99.90;;;;;;5023116;28;19910;-69
2024/01/21 11:54:08;;;;;;;;;;;25.30;99.90;;;;;;5022489;28;19914;-71
2024/01/21 11:56:35;;;;;;;;;;;25.20;99.90;;;;;;5024561;28;19913;-70
2024/01/21 11:59:01;;;;;;;;;;;25.10;99.90;;;;;;5025194;28;19921;-71
2024/01/21 12:01:30;;;;;;;;;;;25.10;99.90;;;;;;5033515;28;19920;-69
2024/01/21 12:03:57;;;;;;;;;;;25.10;99.90;;;;;;5033563;28;19909;-69
2024/01/21 12:06:24;;;;;;;;;;;25.10;99.90;;;;;;5033488;28;19909;-73
2024/01/21 12:08:51;;;;;;;;;;;25.00;99.90;;;;;;5021646;28;19914;-70
2024/01/21 12:11:17;;;;;;;;;;;25.00;99.90;;;;;;5026154;28;19913;-72
2024/01/21 12:13:44;;;;;;;;;;;25.00;99.90;;;;;;5033701;28;19909;-69
2024/01/21 12:16:11;;;;;;;;;;;25.00;99.90;;;;;;5022403;28;19920;-68
2024/01/21 12:18:42;;;;;;;;;;;24.90;99.90;;;;;;5012995;28;20320;-71
2024/01/21 12:21:12;;;;;;;;;;;24.90;99.90;;;;;;5025937;28;19928;-72
2024/01/21 12:23:46;;;;;;;;;;;24.90;99.90;;;;;;5032253;28;19913;-70
2024/01/21 12:26:19;;;;;;;;;;;24.80;99.90;;;;;;5032883;28;20424;-69
2024/01/21 12:28:56;;;;;;;;;;;24.70;99.90;;;;;;5032790;28;20380;-69
2024/01/21 12:31:32;;;;;;;;;;;24.70;99.90;;;;;;5032032;28;20266;-72
2024/01/21 12:33:59;;;;;;;;;;;24.60;99.90;;;;;;5012100;28;20281;-69
2024/01/21 12:36:26;;;;;;;;;;;24.70;99.90;;;;;;5020201;28;19913;-70
2024/01/21 12:38:57;;;;;;;;;;;24.70;99.90;;;;;;5032527;28;20289;-70
2024/01/21 12:41:23;;;;;;;;;;;24.70;99.90;;;;;;5033032;28;20246;-70
2024/01/21 12:43:50;;;;;;;;;;;24.60;99.90;;;;;;5019539;28;19914;-68
2024/01/21 12:46:18;;;;;;;;;;;24.60;99.90;;;;;;5012748;28;19910;-69
2024/01/21 12:48:45;;;;;;;;;;;24.60;99.90;;;;;;5012708;28;19944;-72
2024/01/21 12:51:14;;;;;;;;;;;24.60;99.90;;;;;;5012572;28;20362;-69
2024/01/21 12:53:41;;;;;;;;;;;24.60;99.90;;;;;;5012700;28;19996;-71
2024/01/21 12:56:08;;;;;;;;;;;24.60;99.90;;;;;;5016966;28;19924;-68
2024/01/21 12:58:36;;;;;;;;;;;24.50;99.90;;;;;;5015671;28;20008;-67
2024/01/21 13:01:04;;;;;;;;;;;24.50;99.90;;;;;;5012933;28;19909;-68
2024/01/21 13:03:31;;;;;;;;;;;24.40;99.90;;;;;;5012478;28;19913;-70
2024/01/21 13:06:00;;;;;;;;;;;24.40;99.90;;;;;;5012232;28;20023;-73
2024/01/21 13:08:31;;;;;;;;;;;24.40;99.90;;;;;;5023426;28;20006;-69
2024/01/21 13:10:58;;;;;;;;;;;24.30;99.90;;;;;;5032453;28;19917;-69
2024/01/21 13:13:26;;;;;;;;;;;24.20;99.90;;;;;;5032197;28;19956;-72
2024/01/21 13:15:53;;;;;;;;;;;24.20;99.90;;;;;;5032383;28;19963;-69
2024/01/21 13:18:20;;;;;;;;;;;24.20;99.90;;;;;;5022717;28;19922;-72
2024/01/21 13:20:47;;;;;;;;;;;24.20;99.90;;;;;;4995350;28;20286;-70
2024/01/21 13:23:13;;;;;;;;;;;24.20;99.90;;;;;;5012648;28;20008;-71
2024/01/21 13:25:40;;;;;;;;;;;24.20;99.90;;;;;;5012536;28;20013;-69
2024/01/21 13:28:27;;;;;;;;;;;24.20;99.90;;;;;;5012605;28;19918;-69
2024/01/21 13:30:55;;;;;;;;;;;24.20;99.90;;;;;;5012610;28;19920;-72
2024/01/21 13:33:25;;;;;;;;;;;24.20;99.90;;;;;;5013498;28;19909;-70
2024/01/21 13:35:52;;;;;;;;;;;24.10;99.90;;;;;;5031867;28;20035;-70
2024/01/21 13:38:22;;;;;;;;;;;24.20;99.90;;;;;;5032273;28;20361;-68
2024/01/21 13:40:49;;;;;;;;;;;24.10;99.90;;;;;;5032302;28;19909;-68
2024/01/21 13:43:16;;;;;;;;;;;24.10;99.90;;;;;;5029849;28;19924;-71
2024/01/21 13:45:42;;;;;;;;;;;24.10;99.90;;;;;;5022126;28;19921;-70
2024/01/21 13:48:10;;;;;;;;;;;24.10;99.90;;;;;;5024555;28;19919;-69
2024/01/21 13:50:38;;;;;;;;;;;24.00;99.90;;;;;;5032373;28;19911;-70
2024/01/21 13:53:05;;;;;;;;;;;24.00;99.90;;;;;;5032084;28;20378;-71
2024/01/21 13:55:32;;;;;;;;;;;24.00;99.90;;;;;;5015784;28;19914;-68
2024/01/21 13:58:01;;;;;;;;;;;24.00;99.90;;;;;;5011823;28;20004;-72
2024/01/21 14:00:28;;;;;;;;;;;24.00;99.90;;;;;;5011867;28;19913;-69
2024/01/21 14:02:58;;;;;;;;;;;24.00;99.90;;;;;;5025345;28;20289;-69
2024/01/21 14:05:25;;;;;;;;;;;24.00;99.90;;;;;;5032025;28;20453;-73
2024/01/21 14:07:52;;;;;;;;;;;23.90;99.90;;;;;;5015231;28;19920;-71
2024/01/21 14:10:20;;;;;;;;;;;23.90;99.90;;;;;;5012891;28;19909;-68
2024/01/21 14:12:47;;;;;;;;;;;23.90;99.90;;;;;;5012841;28;20321;-69
2024/01/21 14:15:13;;;;;;;;;;;23.90;99.90;;;;;;5012178;28;19910;-68